createdAt,value
2024-01-20T00:02:04.893Z,-1.32
2024-01-20T00:04:34.389Z,-1.32
2024-01-20T00:07:05.321Z,-1.31
2024-01-20T00:09:39.031Z,-1.31
2024-01-20T00:12:21.777Z,-1.30
2024-01-20T00:14:51.672Z,-1.29
2024-01-20T00:17:25.808Z,-1.30
2024-01-20T00:19:59.481Z,-1.31
2024-01-20T00:22:29.198Z,-1.32
2024-01-20T00:25:02.424Z,-1.30
2024-01-20T00:27:32.255Z,-1.31
2024-01-20T00:30:04.476Z,-1.33
2024-01-20T00:32:34.767Z,-1.35
2024-01-20T00:35:08.210Z,-1.38
2024-01-20T00:37:39.731Z,-1.40
2024-01-20T00:40:11.726Z,-1.43
2024-01-20T00:42:41.419Z,-1.42
2024-01-20T00:45:13.048Z,-1.41
2024-01-20T00:47:42.556Z,-1.42
2024-01-20T00:50:13.267Z,-1.43
2024-01-20T00:52:42.733Z,-1.48
2024-01-20T00:55:13.658Z,-1.53
2024-01-20T00:57:43.261Z,-1.61
2024-01-20T01:00:15.021Z,-1.69
2024-01-20T01:02:44.416Z,-1.74
2024-01-20T01:05:15.089Z,-1.81
2024-01-20T01:07:44.388Z,-1.88
2024-01-20T01:10:15.093Z,-1.94
2024-01-20T01:12:44.380Z,-2.02
2024-01-20T01:15:15.436Z,-2.10
2024-01-20T01:17:44.755Z,-2.17
2024-01-20T01:20:15.742Z,-2.24
2024-01-20T01:22:45.211Z,-2.28
2024-01-20T01:25:15.901Z,-2.34
2024-01-20T01:27:45.202Z,-2.40
2024-01-20T01:30:16.077Z,-2.46
2024-01-20T01:32:45.456Z,-2.51
2024-01-20T01:35:16.180Z,-2.57
2024-01-20T01:37:46.092Z,-2.62
2024-01-20T01:40:16.617Z,-2.65
2024-01-20T01:42:46.118Z,-2.67
2024-01-20T01:45:16.949Z,-2.67
2024-01-20T01:47:46.512Z,-2.68
2024-01-20T01:50:17.014Z,-2.71
2024-01-20T01:52:49.050Z,-2.73
2024-01-20T01:55:19.791Z,-2.76
2024-01-20T01:57:49.597Z,-2.76
2024-01-20T02:00:20.251Z,-2.75
2024-01-20T02:02:50.035Z,-2.74
2024-01-20T02:05:20.668Z,-2.73
2024-01-20T02:07:50.684Z,-2.75
2024-01-20T02:10:22.574Z,-2.78
2024-01-20T02:12:51.938Z,-2.82
2024-01-20T02:15:22.796Z,-2.85
2024-01-20T02:17:55.456Z,-2.86
2024-01-20T02:20:26.184Z,-2.88
2024-01-20T02:22:55.691Z,-2.91
2024-01-20T02:25:26.417Z,-2.94
2024-01-20T02:27:55.790Z,-2.97
2024-01-20T02:30:26.822Z,-3.01
2024-01-20T02:32:56.462Z,-3.06
2024-01-20T02:35:27.003Z,-3.12
2024-01-20T02:37:56.613Z,-3.16
2024-01-20T02:40:28.258Z,-3.21
2024-01-20T02:42:57.659Z,-3.24
2024-01-20T02:45:28.451Z,-3.26
2024-01-20T02:47:59.447Z,-3.27
2024-01-20T02:50:30.373Z,-3.28
2024-01-20T02:53:00.196Z,-3.28
2024-01-20T02:55:30.812Z,-3.27
2024-01-20T02:58:00.521Z,-3.27
2024-01-20T03:00:31.122Z,-3.28
2024-01-20T03:03:00.568Z,-3.29
2024-01-20T03:05:31.132Z,-3.28
2024-01-20T03:08:00.606Z,-3.28
2024-01-20T03:10:31.321Z,-3.27
2024-01-20T03:13:00.733Z,-3.28
2024-01-20T03:15:31.410Z,-3.30
2024-01-20T03:18:01.026Z,-3.30
2024-01-20T03:20:31.714Z,-3.30
2024-01-20T03:23:02.615Z,-3.29
2024-01-20T03:25:33.387Z,-3.29
2024-01-20T03:28:02.807Z,-3.30
2024-01-20T03:30:33.557Z,-3.31
2024-01-20T03:33:03.214Z,-3.35
2024-01-20T03:35:33.958Z,-3.38
2024-01-20T03:38:03.255Z,-3.42
2024-01-20T03:40:34.292Z,-3.48
2024-01-20T03:43:03.894Z,-3.52
2024-01-20T03:45:34.764Z,-3.54
2024-01-20T03:48:04.827Z,-3.57
2024-01-20T03:50:36.134Z,-3.60
2024-01-20T03:53:07.150Z,-3.62
2024-01-20T03:55:37.910Z,-3.63
2024-01-20T03:58:07.276Z,-3.66
2024-01-20T04:00:37.909Z,-3.70
2024-01-20T04:03:07.476Z,-3.75
2024-01-20T04:05:41.149Z,-3.79
2024-01-20T04:08:10.712Z,-3.82
2024-01-20T04:10:41.936Z,-3.82
2024-01-20T04:13:11.962Z,-3.82
2024-01-20T04:15:42.739Z,-3.83
2024-01-20T04:18:12.536Z,-3.86
2024-01-20T04:20:44.376Z,-3.90
2024-01-20T04:23:13.905Z,-3.96
2024-01-20T04:25:44.519Z,-4.00
2024-01-20T04:28:13.998Z,-4.06
2024-01-20T04:30:44.831Z,-4.13
2024-01-20T04:33:14.454Z,-4.18
2024-01-20T04:35:45.203Z,-4.20
2024-01-20T04:38:14.610Z,-4.20
2024-01-20T04:40:45.337Z,-4.20
2024-01-20T04:43:14.635Z,-4.21
2024-01-20T04:45:45.925Z,-4.22
2024-01-20T04:48:15.510Z,-4.22
2024-01-20T04:50:46.315Z,-4.23
2024-01-20T04:53:15.623Z,-4.25
2024-01-20T04:55:46.263Z,-4.25
2024-01-20T04:58:15.654Z,-4.25
2024-01-20T05:00:46.656Z,-4.24
2024-01-20T05:03:16.267Z,-4.23
2024-01-20T05:05:47.069Z,-4.22
2024-01-20T05:08:17.054Z,-4.18
2024-01-20T05:10:47.579Z,-4.15
2024-01-20T05:13:16.977Z,-4.11
2024-01-20T05:15:47.713Z,-4.06
2024-01-20T05:18:17.466Z,-4.00
2024-01-20T05:20:48.159Z,-3.95
2024-01-20T05:23:17.454Z,-3.90
2024-01-20T05:25:48.492Z,-3.84
2024-01-20T05:28:17.803Z,-3.77
2024-01-20T05:30:48.512Z,-3.71
2024-01-20T05:33:18.085Z,-3.66
2024-01-20T05:35:48.877Z,-3.62
2024-01-20T05:38:18.266Z,-3.58
2024-01-20T05:40:48.906Z,-3.54
2024-01-20T05:43:18.207Z,-3.50
2024-01-20T05:45:48.828Z,-3.48
2024-01-20T05:48:18.468Z,-3.47
2024-01-20T05:50:49.602Z,-3.48
2024-01-20T05:53:19.666Z,-3.49
2024-01-20T05:55:51.218Z,-3.50
2024-01-20T05:58:20.457Z,-3.50
2024-01-20T06:00:51.363Z,-3.50
2024-01-20T06:03:20.940Z,-3.50
2024-01-20T06:05:51.921Z,-3.50
2024-01-20T06:08:21.251Z,-3.51
2024-01-20T06:10:52.896Z,-3.53
2024-01-20T06:13:22.408Z,-3.53
2024-01-20T06:15:53.338Z,-3.53
2024-01-20T06:18:22.903Z,-3.51
2024-01-20T06:20:53.700Z,-3.47
2024-01-20T06:23:23.089Z,-3.41
2024-01-20T06:25:55.002Z,-3.33
2024-01-20T06:28:25.990Z,-3.26
2024-01-20T06:30:57.653Z,-3.19
2024-01-20T06:33:27.166Z,-3.13
2024-01-20T06:35:57.900Z,-3.06
2024-01-20T06:38:29.841Z,-2.96
2024-01-20T06:41:00.456Z,-2.86
2024-01-20T06:43:29.875Z,-2.77
2024-01-20T06:46:01.654Z,-2.69
2024-01-20T06:48:34.299Z,-2.63
2024-01-20T06:51:05.586Z,-2.59
2024-01-20T06:53:35.046Z,-2.55
2024-01-20T06:56:06.188Z,-2.48
2024-01-20T06:58:36.104Z,-2.42
2024-01-20T07:01:07.318Z,-2.37
2024-01-20T07:03:36.756Z,-2.35
2024-01-20T07:06:09.104Z,-2.34
2024-01-20T07:08:38.624Z,-2.36
2024-01-20T07:11:12.440Z,-2.40
2024-01-20T07:13:41.830Z,-2.45
2024-01-20T07:16:13.290Z,-2.47
2024-01-20T07:18:43.860Z,-2.50
2024-01-20T07:21:15.188Z,-2.52
2024-01-20T07:23:44.665Z,-2.54
2024-01-20T07:26:15.297Z,-2.57
2024-01-20T07:28:45.110Z,-2.57
2024-01-20T07:31:15.531Z,-2.58
2024-01-20T07:33:45.210Z,-2.55
2024-01-20T07:36:16.024Z,-2.51
2024-01-20T07:38:45.481Z,-2.48
2024-01-20T07:41:16.109Z,-2.45
2024-01-20T07:43:45.522Z,-2.41
2024-01-20T07:46:16.123Z,-2.37
2024-01-20T07:48:45.886Z,-2.32
2024-01-20T07:51:16.606Z,-2.27
2024-01-20T07:53:46.244Z,-2.21
2024-01-20T07:56:17.847Z,-2.12
2024-01-20T07:58:47.199Z,-2.05
2024-01-20T08:01:18.967Z,-1.94
2024-01-20T08:03:48.529Z,-1.79
2024-01-20T08:06:19.443Z,-1.58
2024-01-20T08:08:49.578Z,-1.33
2024-01-20T08:11:22.359Z,-1.14
2024-01-20T08:13:52.571Z,-0.99
2024-01-20T08:16:23.311Z,-0.83
2024-01-20T08:18:53.254Z,-0.68
2024-01-20T08:21:24.532Z,-0.62
2024-01-20T08:23:54.223Z,-0.61
2024-01-20T08:26:25.227Z,-0.64
2024-01-20T08:28:54.610Z,-0.70
2024-01-20T08:31:25.609Z,-0.80
2024-01-20T08:33:55.889Z,-0.88
2024-01-20T08:36:26.750Z,-0.93
2024-01-20T08:38:56.165Z,-0.98
2024-01-20T08:41:27.062Z,-1.05
2024-01-20T08:43:56.757Z,-1.09
2024-01-20T08:46:27.384Z,-1.02
2024-01-20T08:48:56.817Z,-0.91
2024-01-20T08:51:27.549Z,-0.78
2024-01-20T08:53:57.288Z,-0.65
2024-01-20T08:56:28.174Z,-0.59
2024-01-20T08:58:57.586Z,-0.54
2024-01-20T09:01:28.239Z,-0.47
2024-01-20T09:03:58.264Z,-0.45
2024-01-20T09:06:29.186Z,-0.47
2024-01-20T09:08:58.705Z,-0.50
2024-01-20T09:11:29.400Z,-0.49
2024-01-20T09:13:59.003Z,-0.46
2024-01-20T09:16:29.849Z,-0.38
2024-01-20T09:18:59.888Z,-0.28
2024-01-20T09:21:30.622Z,-0.18
2024-01-20T09:24:02.144Z,-0.05
2024-01-20T09:26:33.374Z,0.08
2024-01-20T09:29:02.785Z,0.26
2024-01-20T09:31:33.784Z,0.45
2024-01-20T09:34:03.596Z,0.63
2024-01-20T09:36:34.698Z,0.80
2024-01-20T09:39:04.667Z,0.95
2024-01-20T09:41:35.347Z,1.08
2024-01-20T09:44:05.421Z,1.19
2024-01-20T09:46:36.262Z,1.21
2024-01-20T09:49:05.778Z,1.21
2024-01-20T09:51:39.214Z,1.19
2024-01-20T09:54:08.686Z,1.16
2024-01-20T09:56:39.301Z,1.13
2024-01-20T09:59:08.899Z,1.09
2024-01-20T10:01:39.887Z,1.07
2024-01-20T10:04:10.269Z,1.05
2024-01-20T10:06:41.037Z,1.05
2024-01-20T10:09:10.519Z,1.02
2024-01-20T10:11:41.127Z,1.01
2024-01-20T10:14:10.425Z,1.01
2024-01-20T10:16:41.241Z,1.02
2024-01-20T10:19:10.666Z,1.05
2024-01-20T10:21:44.509Z,1.08
2024-01-20T10:24:14.089Z,1.11
2024-01-20T10:26:45.317Z,1.17
2024-01-20T10:29:14.626Z,1.22
2024-01-20T10:31:45.254Z,1.26
2024-01-20T10:34:14.666Z,1.32
2024-01-20T10:36:46.083Z,1.35
2024-01-20T10:39:18.247Z,1.36
2024-01-20T10:41:50.018Z,1.40
2024-01-20T10:44:19.345Z,1.46
2024-01-20T10:46:52.311Z,1.49
2024-01-20T10:49:22.119Z,1.52
2024-01-20T10:51:52.987Z,1.56
2024-01-20T10:54:22.613Z,1.60
2024-01-20T10:56:53.224Z,1.59
2024-01-20T10:59:24.068Z,1.63
2024-01-20T11:01:54.692Z,1.63
2024-01-20T11:04:24.256Z,1.63
2024-01-20T11:06:55.695Z,1.63
2024-01-20T11:09:25.714Z,1.64
2024-01-20T11:12:03.908Z,1.63
2024-01-20T11:14:34.824Z,1.66
2024-01-20T11:17:13.951Z,1.69
2024-01-20T11:19:44.753Z,1.75
2024-01-20T11:22:49.641Z,1.80
2024-01-20T11:25:21.067Z,1.83
2024-01-20T11:27:51.268Z,1.82
2024-01-20T11:30:32.107Z,1.83
2024-01-20T11:33:03.334Z,1.83
2024-01-20T11:35:32.914Z,1.83
2024-01-20T11:38:03.746Z,1.83
2024-01-20T11:40:33.048Z,1.84
2024-01-20T11:43:07.797Z,1.84
2024-01-20T11:45:40.541Z,1.85
2024-01-20T11:48:14.026Z,1.86
2024-01-20T11:50:46.129Z,1.84
2024-01-20T11:53:15.921Z,1.83
2024-01-20T11:56:01.583Z,1.82
2024-01-20T11:58:32.348Z,1.82
2024-01-20T12:01:03.166Z,1.84
2024-01-20T12:03:34.013Z,1.85
2024-01-20T12:06:08.865Z,1.85
2024-01-20T12:08:46.723Z,1.84
2024-01-20T12:11:21.207Z,1.83
2024-01-20T12:13:50.997Z,1.82
2024-01-20T12:16:21.611Z,1.83
2024-01-20T12:18:51.147Z,1.83
2024-01-20T12:21:22.206Z,1.83
2024-01-20T12:23:53.724Z,1.81
2024-01-20T12:26:24.819Z,1.82
2024-01-20T12:28:54.550Z,1.80
2024-01-20T12:31:27.447Z,1.78
2024-01-20T12:33:56.890Z,1.75
2024-01-20T12:36:28.646Z,1.75
2024-01-20T12:38:58.196Z,1.74
2024-01-20T12:41:28.844Z,1.72
2024-01-20T12:43:58.139Z,1.73
2024-01-20T12:46:28.768Z,1.77
2024-01-20T12:48:58.134Z,1.76
2024-01-20T12:51:28.894Z,1.75
2024-01-20T12:53:58.545Z,1.75
2024-01-20T12:56:29.246Z,1.72
2024-01-20T12:58:58.664Z,1.69
2024-01-20T13:01:30.150Z,1.65
2024-01-20T13:03:59.697Z,1.62
2024-01-20T13:06:31.974Z,1.59
2024-01-20T13:09:01.688Z,1.55
2024-01-20T13:11:32.318Z,1.52
2024-01-20T13:14:02.159Z,1.48
2024-01-20T13:16:32.860Z,1.43
2024-01-20T13:19:02.821Z,1.39
2024-01-20T13:21:33.552Z,1.36
2024-01-20T13:24:03.285Z,1.35
2024-01-20T13:26:34.142Z,1.35
2024-01-20T13:29:03.546Z,1.33
2024-01-20T13:31:35.960Z,1.33
2024-01-20T13:34:05.385Z,1.33
2024-01-20T13:36:36.408Z,1.31
2024-01-20T13:39:06.564Z,1.26
2024-01-20T13:41:37.429Z,1.22
2024-01-20T13:44:06.818Z,1.18
2024-01-20T13:46:37.442Z,1.15
2024-01-20T13:49:08.393Z,1.12
2024-01-20T13:51:40.083Z,1.08
2024-01-20T13:54:09.731Z,1.04
2024-01-20T13:56:40.602Z,0.99
2024-01-20T13:59:10.704Z,0.95
2024-01-20T14:01:43.346Z,0.88
2024-01-20T14:04:13.042Z,0.82
2024-01-20T14:06:43.822Z,0.79
2024-01-20T14:09:13.368Z,0.74
2024-01-20T14:11:43.959Z,0.72
2024-01-20T14:14:13.227Z,0.69
2024-01-20T14:16:57.101Z,0.66
2024-01-20T14:19:30.955Z,0.63
2024-01-20T14:22:00.934Z,0.59
2024-01-20T14:24:31.602Z,0.55
2024-01-20T14:27:01.064Z,0.50
2024-01-20T14:29:31.707Z,0.46
2024-01-20T14:32:04.251Z,0.41
2024-01-20T14:34:35.116Z,0.36
2024-01-20T14:37:08.013Z,0.30
2024-01-20T14:39:39.465Z,0.23
2024-01-20T14:42:09.372Z,0.16
2024-01-20T14:44:39.979Z,0.08
2024-01-20T14:47:10.541Z,0.01
2024-01-20T14:49:41.285Z,-0.07
2024-01-20T14:52:10.750Z,-0.16
2024-01-20T14:54:41.431Z,-0.25
2024-01-20T14:57:10.841Z,-0.34
2024-01-20T14:59:41.414Z,-0.43
2024-01-20T15:02:11.123Z,-0.53
2024-01-20T15:04:41.713Z,-0.62
2024-01-20T15:07:11.231Z,-0.71
2024-01-20T15:09:42.538Z,-0.80
2024-01-20T15:12:12.245Z,-0.88
2024-01-20T15:14:45.407Z,-0.94
2024-01-20T15:17:14.913Z,-1.00
2024-01-20T15:19:45.590Z,-1.07
2024-01-20T15:22:15.038Z,-1.15
2024-01-20T15:24:46.200Z,-1.22
2024-01-20T15:27:15.609Z,-1.26
2024-01-20T15:29:46.331Z,-1.31
2024-01-20T15:32:15.623Z,-1.37
2024-01-20T15:34:46.438Z,-1.42
2024-01-20T15:37:15.861Z,-1.48
2024-01-20T15:39:46.661Z,-1.56
2024-01-20T15:42:16.829Z,-1.62
2024-01-20T15:44:47.962Z,-1.67
2024-01-20T15:47:17.251Z,-1.74
2024-01-20T15:49:48.537Z,-1.83
2024-01-20T15:52:18.105Z,-1.88
2024-01-20T15:54:48.884Z,-1.95
2024-01-20T15:57:18.479Z,-2.00
2024-01-20T15:59:49.177Z,-2.05
2024-01-20T16:02:18.884Z,-2.10
2024-01-20T16:04:49.783Z,-2.14
2024-01-20T16:07:19.442Z,-2.17
2024-01-20T16:09:50.308Z,-2.19
2024-01-20T16:12:19.677Z,-2.20
2024-01-20T16:14:50.826Z,-2.23
2024-01-20T16:17:20.217Z,-2.24
2024-01-20T16:19:51.062Z,-2.24
2024-01-20T16:22:20.350Z,-2.25
2024-01-20T16:24:51.530Z,-2.27
2024-01-20T16:27:21.464Z,-2.28
2024-01-20T16:29:52.150Z,-2.30
2024-01-20T16:32:21.509Z,-2.33
2024-01-20T16:34:52.253Z,-2.36
2024-01-20T16:37:21.772Z,-2.40
2024-01-20T16:39:53.256Z,-2.44
2024-01-20T16:42:24.903Z,-2.45
2024-01-20T16:44:57.248Z,-2.46
2024-01-20T16:47:27.047Z,-2.47
2024-01-20T16:49:57.924Z,-2.48
2024-01-20T16:52:27.195Z,-2.50
2024-01-20T16:54:57.733Z,-2.51
2024-01-20T16:57:44.596Z,-2.50
2024-01-20T17:00:14.793Z,-2.47
2024-01-20T17:02:45.400Z,-2.47
2024-01-20T17:05:15.632Z,-2.47
2024-01-20T17:07:46.756Z,-2.48
2024-01-20T17:10:16.370Z,-2.48
2024-01-20T17:12:47.009Z,-2.48
2024-01-20T17:15:16.826Z,-2.48
2024-01-20T17:17:47.659Z,-2.48
2024-01-20T17:20:17.455Z,-2.48
2024-01-20T17:22:48.089Z,-2.50
2024-01-20T17:25:17.485Z,-2.52
2024-01-20T17:27:51.394Z,-2.53
2024-01-20T17:30:20.768Z,-2.51
2024-01-20T17:32:51.675Z,-2.49
2024-01-20T17:35:21.242Z,-2.47
2024-01-20T17:37:51.777Z,-2.45
2024-01-20T17:40:21.888Z,-2.44
2024-01-20T17:42:52.523Z,-2.45
2024-01-20T17:45:22.046Z,-2.46
2024-01-20T17:47:53.619Z,-2.48
2024-01-20T17:50:25.460Z,-2.49
2024-01-20T17:52:56.235Z,-2.50
2024-01-20T17:55:27.612Z,-2.50
2024-01-20T17:58:00.232Z,-2.51
2024-01-20T18:00:30.124Z,-2.51
2024-01-20T18:03:00.846Z,-2.50
2024-01-20T18:05:30.510Z,-2.49
2024-01-20T18:08:01.396Z,-2.49
2024-01-20T18:10:30.899Z,-2.49
2024-01-20T18:13:06.835Z,-2.49
2024-01-20T18:15:37.375Z,-2.50
2024-01-20T18:18:07.554Z,-2.50
2024-01-20T18:20:38.326Z,-2.52
2024-01-20T18:23:07.766Z,-2.53
2024-01-20T18:25:38.461Z,-2.55
2024-01-20T18:28:07.880Z,-2.55
2024-01-20T18:30:39.356Z,-2.55
2024-01-20T18:33:08.959Z,-2.53
2024-01-20T18:35:39.860Z,-2.52
2024-01-20T18:38:09.265Z,-2.51
2024-01-20T18:40:40.502Z,-2.52
2024-01-20T18:43:09.906Z,-2.52
2024-01-20T18:45:40.596Z,-2.52
2024-01-20T18:48:10.185Z,-2.53
2024-01-20T18:50:41.178Z,-2.55
2024-01-20T18:53:11.829Z,-2.55
2024-01-20T18:55:42.656Z,-2.54
2024-01-20T18:58:15.037Z,-2.53
2024-01-20T19:00:45.914Z,-2.51
2024-01-20T19:03:15.428Z,-2.51
2024-01-20T19:05:46.191Z,-2.53
2024-01-20T19:08:15.494Z,-2.54
2024-01-20T19:10:46.138Z,-2.56
2024-01-20T19:13:16.032Z,-2.58
2024-01-20T19:15:49.134Z,-2.61
2024-01-20T19:18:19.133Z,-2.64
2024-01-20T19:20:50.101Z,-2.64
2024-01-20T19:23:19.485Z,-2.62
2024-01-20T19:25:50.115Z,-2.61
2024-01-20T19:28:19.834Z,-2.62
2024-01-20T19:30:50.528Z,-2.63
2024-01-20T19:33:20.392Z,-2.65
2024-01-20T19:35:51.719Z,-2.69
2024-01-20T19:38:21.026Z,-2.74
2024-01-20T19:40:51.658Z,-2.79
2024-01-20T19:43:21.269Z,-2.85
2024-01-20T19:45:52.097Z,-2.90
2024-01-20T19:48:21.564Z,-2.94
2024-01-20T19:50:53.162Z,-2.95
2024-01-20T19:53:22.456Z,-2.94
2024-01-20T19:55:53.720Z,-2.93
2024-01-20T19:58:23.209Z,-2.91
2024-01-20T20:00:53.981Z,-2.89
2024-01-20T20:03:23.850Z,-2.88
2024-01-20T20:05:54.524Z,-2.86
2024-01-20T20:08:24.392Z,-2.83
2024-01-20T20:10:55.430Z,-2.80
2024-01-20T20:13:27.859Z,-2.78
2024-01-20T20:16:00.167Z,-2.75
2024-01-20T20:18:31.437Z,-2.70
2024-01-20T20:21:02.203Z,-2.65
2024-01-20T20:23:31.767Z,-2.60
2024-01-20T20:26:03.194Z,-2.54
2024-01-20T20:28:32.717Z,-2.45
2024-01-20T20:31:09.861Z,-2.35
2024-01-20T20:33:42.108Z,-2.24
2024-01-20T20:36:11.516Z,-2.16
2024-01-20T20:38:42.101Z,-2.08
2024-01-20T20:41:11.515Z,-2.01
2024-01-20T20:43:42.248Z,-1.95
2024-01-20T20:46:11.644Z,-1.89
2024-01-20T20:48:42.302Z,-1.83
2024-01-20T20:51:12.223Z,-1.74
2024-01-20T20:53:43.024Z,-1.66
2024-01-20T20:56:13.752Z,-1.60
2024-01-20T20:58:44.376Z,-1.53
2024-01-20T21:01:14.109Z,-1.48
2024-01-20T21:03:46.366Z,-1.43
2024-01-20T21:06:16.377Z,-1.40
2024-01-20T21:08:46.919Z,-1.37
2024-01-20T21:11:16.321Z,-1.35
2024-01-20T21:13:47.241Z,-1.32
2024-01-20T21:16:17.161Z,-1.29
2024-01-20T21:18:47.674Z,-1.25
2024-01-20T21:21:17.259Z,-1.22
2024-01-20T21:23:49.605Z,-1.19
2024-01-20T21:26:24.598Z,-1.18
2024-01-20T21:28:55.341Z,-1.17
2024-01-20T21:31:24.726Z,-1.15
2024-01-20T21:33:56.199Z,-1.14
2024-01-20T21:36:26.249Z,-1.12
2024-01-20T21:38:57.862Z,-1.09
2024-01-20T21:41:27.907Z,-1.05
2024-01-20T21:44:01.880Z,-1.04
2024-01-20T21:46:31.482Z,-1.01
2024-01-20T21:49:02.212Z,-1.00
2024-01-20T21:51:31.672Z,-0.99
2024-01-20T21:54:02.354Z,-0.98
2024-01-20T21:56:31.967Z,-0.97
2024-01-20T21:59:02.493Z,-0.94
2024-01-20T22:01:38.304Z,-0.91
2024-01-20T22:04:10.148Z,-0.88
2024-01-20T22:06:39.988Z,-0.86
2024-01-20T22:09:10.765Z,-0.85
2024-01-20T22:11:40.353Z,-0.84
2024-01-20T22:14:10.860Z,-0.85
2024-01-20T22:16:40.285Z,-0.84
2024-01-20T22:19:11.014Z,-0.84
2024-01-20T22:21:42.470Z,-0.84
2024-01-20T22:24:13.398Z,-0.83
2024-01-20T22:26:42.820Z,-0.80
2024-01-20T22:29:19.533Z,-0.77
2024-01-20T22:32:00.354Z,-0.75
2024-01-20T22:34:32.798Z,-0.75
2024-01-20T22:37:04.374Z,-0.74
2024-01-20T22:39:33.721Z,-0.73
2024-01-20T22:42:04.414Z,-0.72
2024-01-20T22:44:33.808Z,-0.69
2024-01-20T22:47:04.745Z,-0.65
2024-01-20T22:49:34.812Z,-0.62
2024-01-20T22:52:06.336Z,-0.60
2024-01-20T22:54:35.821Z,-0.58
2024-01-20T22:57:07.821Z,-0.58
2024-01-20T22:59:37.246Z,-0.58
2024-01-20T23:02:07.916Z,-0.57
2024-01-20T23:04:37.359Z,-0.55
2024-01-20T23:07:08.050Z,-0.52
2024-01-20T23:09:37.383Z,-0.51
2024-01-20T23:12:08.205Z,-0.50
2024-01-20T23:14:38.914Z,-0.50
2024-01-20T23:17:09.563Z,-0.53
2024-01-20T23:19:39.178Z,-0.55
2024-01-20T23:22:09.807Z,-0.55
2024-01-20T23:24:39.189Z,-0.54
2024-01-20T23:27:10.495Z,-0.53
2024-01-20T23:29:40.101Z,-0.53
2024-01-20T23:32:10.875Z,-0.53
2024-01-20T23:34:41.212Z,-0.54
2024-01-20T23:37:13.884Z,-0.56
2024-01-20T23:39:43.342Z,-0.57
2024-01-20T23:42:14.159Z,-0.58
2024-01-20T23:44:43.748Z,-0.57
2024-01-20T23:47:14.422Z,-0.55
2024-01-20T23:49:43.734Z,-0.55
2024-01-20T23:52:14.597Z,-0.55
2024-01-20T23:54:44.178Z,-0.53
2024-01-20T23:57:15.287Z,-0.54
2024-01-20T23:59:48.143Z,-0.53
